Time;durP1;ratioP1;P1;durP2;ratioP2;P2;SDS_P1;SDS_P2;PMS_P1;PMS_P2;Temp;Humidity;BMP_temperature;BMP_pressure;BME280_temperature;BME280_humidity;BME280_pressure;Samples;Min_cycle;Max_cycle;Signal;HPM_P1;HPM_P2
2021/05/04 00:01:28;;;;;;;3.05;1.25;;;;;;;7.85;57.30;100696.30;1832416;78;21558;-68
2021/05/04 00:03:56;;;;;;;2.67;1.42;;;;;;;7.82;57.42;100693.81;1832423;78;21435;-70
2021/05/04 00:06:24;;;;;;;2.30;1.40;;;;;;;7.81;57.24;100697.35;1832423;78;20918;-70
2021/05/04 00:08:53;;;;;;;1.70;1.25;;;;;;;7.78;57.60;100699.25;1832419;78;21368;-70
2021/05/04 00:11:21;;;;;;;1.40;1.27;;;;;;;7.75;57.72;100702.86;1832367;78;20922;-69
2021/05/04 00:13:50;;;;;;;2.10;1.05;;;;;;;7.72;57.64;100708.23;1832400;78;21060;-68
2021/05/04 00:16:18;;;;;;;2.72;1.52;;;;;;;7.68;58.05;100704.91;1832502;78;21318;-69
2021/05/04 00:18:46;;;;;;;2.60;1.27;;;;;;;7.65;58.33;100706.83;1832258;78;20962;-69
2021/05/04 00:21:14;;;;;;;1.40;1.27;;;;;;;7.62;58.69;100705.19;1832395;78;21010;-69
2021/05/04 00:23:43;;;;;;;1.72;1.32;;;;;;;7.59;58.30;100713.17;1832388;78;21559;-70
2021/05/04 00:26:11;;;;;;;3.05;1.50;;;;;;;7.58;58.08;100714.09;1832367;78;20879;-70
2021/05/04 00:28:40;;;;;;;2.05;1.10;;;;;;;7.55;58.32;100710.30;1832426;78;21802;-70
2021/05/04 00:31:09;;;;;;;3.80;1.30;;;;;;;7.53;58.88;100718.66;1832355;78;21397;-69
2021/05/04 00:33:37;;;;;;;2.80;1.98;;;;;;;7.50;59.00;100713.59;1832343;78;21459;-69
2021/05/04 00:36:05;;;;;;;4.22;1.60;;;;;;;7.46;58.82;100715.48;1832365;78;20934;-69
2021/05/04 00:38:33;;;;;;;2.08;1.50;;;;;;;7.44;58.52;100719.09;1832395;77;20922;-70
2021/05/04 00:41:02;;;;;;;1.50;1.40;;;;;;;7.41;58.53;100718.77;1830254;77;21426;-71
2021/05/04 00:43:31;;;;;;;1.62;1.52;;;;;;;7.39;58.54;100719.76;1829765;78;20958;-71
2021/05/04 00:45:59;;;;;;;4.12;1.80;;;;;;;7.38;58.58;100716.74;1830105;78;20978;-70
2021/05/04 00:48:29;;;;;;;3.55;1.40;;;;;;;7.35;59.06;100719.03;1830803;77;20998;-69
2021/05/04 00:53:21;;;;;;;3.40;1.47;;;;;;;7.35;59.14;100706.45;1815362;79;22525;-69
2021/05/04 00:55:49;;;;;;;1.75;1.50;;;;;;;7.28;58.68;100718.94;1714522;80;21025;-71
2021/05/04 00:58:17;;;;;;;1.70;1.60;;;;;;;7.25;58.51;100713.41;1784162;79;21360;-71
2021/05/04 01:00:46;;;;;;;2.22;2.05;;;;;;;7.22;58.84;100719.20;1784035;80;20958;-70
2021/05/04 01:03:15;;;;;;;2.98;1.75;;;;;;;7.20;58.82;100713.20;1784114;80;21042;-72
2021/05/04 01:05:44;;;;;;;4.95;2.40;;;;;;;7.18;58.80;100715.90;1784091;80;21309;-70
2021/05/04 01:08:12;;;;;;;3.22;2.20;;;;;;;7.16;59.03;100715.12;1784106;79;20955;-69
2021/05/04 01:10:41;;;;;;;1.95;1.85;;;;;;;7.15;59.20;100723.00;1784122;80;21135;-71
2021/05/04 01:13:10;;;;;;;3.10;1.72;;;;;;;7.13;59.01;100718.30;1784108;79;20989;-71
2021/05/04 01:15:41;;;;;;;1.70;1.60;;;;;;;7.10;59.08;100716.69;1784069;80;21053;-70
2021/05/04 01:18:10;;;;;;;1.80;1.27;;;;;;;7.06;59.01;100712.05;1784187;80;20993;-71
2021/05/04 01:20:38;;;;;;;4.22;1.60;;;;;;;7.05;59.08;100716.05;1784132;79;20994;-71
2021/05/04 01:23:07;;;;;;;4.72;1.85;;;;;;;7.02;59.01;100718.31;1783428;79;21581;-71
2021/05/04 01:25:36;;;;;;;1.98;1.50;;;;;;;7.00;59.18;100715.37;1784035;80;21488;-70
2021/05/04 01:28:04;;;;;;;1.62;1.52;;;;;;;6.99;59.30;100718.45;1784158;80;20923;-71
2021/05/04 01:30:32;;;;;;;5.42;1.85;;;;;;;6.97;59.18;100723.34;1784089;79;21412;-71
2021/05/04 01:33:01;;;;;;;1.98;1.77;;;;;;;6.96;59.29;100720.33;1784094;80;20977;-72
2021/05/04 01:35:30;;;;;;;2.30;1.82;;;;;;;6.94;59.89;100722.19;1784051;79;22392;-71
2021/05/04 01:37:58;;;;;;;5.17;2.60;;;;;;;6.92;59.92;100729.23;1784020;80;21451;-71
2021/05/04 01:40:26;;;;;;;2.45;1.40;;;;;;;6.90;59.92;100732.35;1784099;79;21353;-71
2021/05/04 01:42:55;;;;;;;3.17;2.05;;;;;;;6.87;59.67;100725.52;1783991;80;20961;-71
2021/05/04 01:45:24;;;;;;;3.12;1.60;;;;;;;6.84;59.81;100724.33;1784070;80;20926;-71
2021/05/04 01:47:52;;;;;;;2.83;1.45;;;;;;;6.81;60.08;100735.73;1784080;80;21360;-70
2021/05/04 01:50:21;;;;;;;2.95;1.77;;;;;;;6.80;60.34;100729.27;1784009;79;21443;-69
2021/05/04 01:52:50;;;;;;;12.25;8.43;;;;;;;6.80;60.38;100737.09;1780630;80;20962;-70
2021/05/04 01:55:19;;;;;;;4.65;1.92;;;;;;;6.83;60.49;100739.59;1779130;80;21443;-69
2021/05/04 01:57:47;;;;;;;3.83;1.60;;;;;;;6.82;60.95;100737.88;1779175;80;20911;-70
2021/05/04 02:00:16;;;;;;;2.05;1.57;;;;;;;6.82;61.71;100740.48;1779114;79;21349;-71
2021/05/04 02:02:44;;;;;;;3.52;1.50;;;;;;;6.83;61.27;100744.34;1778904;80;20955;-68
2021/05/04 02:05:14;;;;;;;5.28;1.70;;;;;;;6.88;60.87;100753.73;1774008;79;21053;-69
2021/05/04 02:07:43;;;;;;;2.05;1.22;;;;;;;6.91;61.25;100763.55;1778501;80;20939;-70
2021/05/04 02:10:11;;;;;;;3.67;1.40;;;;;;;6.92;62.29;100768.33;1778469;80;20974;-70
2021/05/04 02:12:41;;;;;;;1.87;1.67;;;;;;;6.90;61.77;100767.08;1778489;80;21783;-70
2021/05/04 02:15:10;;;;;;;17.15;2.40;;;;;;;6.88;61.53;100766.30;1778432;80;21009;-69
2021/05/04 02:17:38;;;;;;;2.90;2.55;;;;;;;6.87;61.33;100771.56;1778438;80;21061;-68
2021/05/04 02:20:08;;;;;;;4.30;1.67;;;;;;;6.84;61.03;100774.69;1778473;80;20938;-69
2021/05/04 02:22:36;;;;;;;4.20;1.95;;;;;;;6.83;61.00;100776.92;1778387;80;20898;-70
2021/05/04 02:25:06;;;;;;;2.12;1.75;;;;;;;6.80;61.24;100774.89;1778461;79;22376;-69
2021/05/04 02:27:34;;;;;;;2.00;1.67;;;;;;;6.76;61.33;100784.61;1778457;80;20918;-69
2021/05/04 02:30:04;;;;;;;4.05;2.75;;;;;;;6.71;61.55;100780.02;1778500;79;20979;-69
2021/05/04 02:32:35;;;;;;;4.20;2.08;;;;;;;6.67;61.70;100786.30;1778437;80;21061;-70
2021/05/04 02:35:05;;;;;;;3.55;2.50;;;;;;;6.62;62.22;100789.06;1778574;79;20926;-70
2021/05/04 02:37:33;;;;;;;3.47;2.55;;;;;;;6.58;62.68;100792.73;1778554;80;21401;-70
2021/05/04 02:40:02;;;;;;;4.62;2.42;;;;;;;6.56;63.02;100794.55;1778435;79;20973;-70
2021/05/04 02:42:30;;;;;;;2.37;2.10;;;;;;;6.59;63.38;100789.20;1778508;80;20998;-69
2021/05/04 02:44:59;;;;;;;5.47;2.72;;;;;;;6.62;63.68;100802.55;1778417;79;21014;-69
2021/05/04 02:47:27;;;;;;;6.08;2.65;;;;;;;6.63;63.97;100809.02;1778506;80;21415;-70
2021/05/04 02:49:55;;;;;;;5.90;3.05;;;;;;;6.67;64.03;100811.05;1778516;79;21356;-69
2021/05/04 02:52:23;;;;;;;6.50;3.30;;;;;;;6.73;64.08;100813.85;1775609;80;20947;-69
2021/05/04 02:54:51;;;;;;;7.33;4.33;;;;;;;6.77;64.05;100817.56;1769998;81;21014;-70
2021/05/04 02:57:20;;;;;;;8.70;4.95;;;;;;;6.82;64.08;100819.52;1769946;81;21006;-69
2021/05/04 02:59:48;;;;;;;10.72;5.90;;;;;;;6.84;64.06;100821.61;1770069;81;21030;-69
2021/05/04 03:02:16;;;;;;;11.03;6.08;;;;;;;6.86;64.15;100824.16;1770093;81;21499;-68
2021/05/04 03:04:45;;;;;;;6.08;4.20;;;;;;;6.87;64.62;100825.88;1769837;81;20907;-69
2021/05/04 03:07:13;;;;;;;3.25;2.92;;;;;;;6.87;64.28;100828.91;1769978;81;21010;-70
2021/05/04 03:09:43;;;;;;;5.17;2.47;;;;;;;6.86;63.92;100831.98;1769927;81;20982;-68
2021/05/04 03:12:11;;;;;;;5.10;2.77;;;;;;;6.84;63.67;100828.12;1770077;81;21531;-68
2021/05/04 03:14:40;;;;;;;4.80;2.50;;;;;;;6.85;64.03;100832.91;1770025;79;22300;-70
2021/05/04 03:17:09;;;;;;;4.25;2.47;;;;;;;6.85;63.63;100833.75;1769937;81;21050;-69
2021/05/04 03:19:39;;;;;;;3.90;2.20;;;;;;;6.86;63.55;100841.11;1769939;81;21022;-69
2021/05/04 03:22:07;;;;;;;4.53;2.00;;;;;;;6.88;63.33;100839.75;1769985;81;20931;-70
2021/05/04 03:24:35;;;;;;;2.30;2.10;;;;;;;6.94;63.05;100842.95;1770032;79;20884;-70
2021/05/04 03:27:04;;;;;;;4.90;1.65;;;;;;;7.04;62.96;100844.71;1769953;81;21204;-70
2021/05/04 03:29:32;;;;;;;2.58;1.87;;;;;;;7.12;62.70;100843.95;1770025;81;21409;-69
2021/05/04 03:32:00;;;;;;;5.53;2.55;;;;;;;7.20;62.45;100849.70;1769930;79;21002;-69
2021/05/04 03:34:30;;;;;;;2.37;1.82;;;;;;;7.31;62.54;100846.61;1769964;81;21496;-68
2021/05/04 03:36:58;;;;;;;3.40;2.05;;;;;;;7.42;62.48;100843.54;1769993;81;21034;-69
2021/05/04 03:39:26;;;;;;;6.20;2.30;;;;;;;7.52;61.77;100844.01;1769924;79;21773;-69
2021/05/04 03:41:55;;;;;;;1.72;1.35;;;;;;;7.61;61.43;100850.97;1769900;81;21038;-70
2021/05/04 03:44:23;;;;;;;2.37;2.05;;;;;;;7.70;60.62;100849.72;1769958;81;20899;-68
2021/05/04 03:46:52;;;;;;;3.67;2.27;;;;;;;7.77;60.83;100851.13;1770017;79;20990;-70
2021/05/04 03:49:20;;;;;;;3.20;2.08;;;;;;;7.84;60.30;100849.09;1769989;81;20955;-70
2021/05/04 03:51:49;;;;;;;3.85;1.40;;;;;;;7.91;59.90;100853.11;1769916;79;21196;-69
2021/05/04 03:54:17;;;;;;;2.27;1.80;;;;;;;7.99;59.81;100856.70;1777927;80;20942;-69
2021/05/04 03:56:45;;;;;;;4.47;2.42;;;;;;;8.09;59.87;100864.48;1778458;80;21353;-70
2021/05/04 03:59:14;;;;;;;7.50;2.35;;;;;;;8.18;59.23;100858.87;1778234;80;20958;-68
2021/05/04 04:01:43;;;;;;;2.17;1.90;;;;;;;8.35;58.93;100863.29;1778430;80;20931;-70
2021/05/04 04:04:12;;;;;;;1.77;1.65;;;;;;;8.61;58.55;100856.87;1778277;79;21649;-70
2021/05/04 04:06:40;;;;;;;4.47;1.67;;;;;;;8.97;57.18;100869.06;1778370;80;20994;-71
2021/05/04 04:09:09;;;;;;;3.58;1.90;;;;;;;9.38;56.75;100862.67;1778277;80;21014;-70
2021/05/04 04:11:37;;;;;;;1.92;1.82;;;;;;;9.85;56.23;100864.15;1778378;80;21338;-71
2021/05/04 04:14:06;;;;;;;3.80;1.92;;;;;;;10.36;54.18;100870.63;1778419;80;20899;-69
2021/05/04 04:16:35;;;;;;;1.92;1.52;;;;;;;10.84;53.31;100871.88;1778379;79;20958;-70
2021/05/04 04:19:04;;;;;;;1.40;1.30;;;;;;;11.34;52.32;100867.63;1778376;80;20962;-70
2021/05/04 04:21:34;;;;;;;2.22;1.25;;;;;;;11.82;49.99;100872.16;1778386;80;21018;-69
2021/05/04 04:24:04;;;;;;;4.42;1.10;;;;;;;12.07;48.72;100868.53;1778439;80;21377;-70
2021/05/04 04:26:32;;;;;;;3.33;1.45;;;;;;;12.24;48.45;100873.09;1778516;80;21053;-69
2021/05/04 04:29:00;;;;;;;1.10;1.00;;;;;;;12.43;47.76;100871.48;1778331;80;21367;-70
2021/05/04 04:31:28;;;;;;;2.50;1.62;;;;;;;12.62;47.17;100868.97;1778325;80;21033;-71
2021/05/04 04:33:56;;;;;;;1.52;1.42;;;;;;;12.70;46.95;100866.70;1778390;79;21499;-71
2021/05/04 04:36:25;;;;;;;2.83;1.20;;;;;;;12.71;46.34;100867.53;1778377;80;21606;-68
2021/05/04 04:38:53;;;;;;;2.20;1.30;;;;;;;12.73;46.47;100869.59;1778437;79;21464;-72
2021/05/04 04:41:23;;;;;;;3.08;1.02;;;;;;;12.81;46.54;100869.47;1776187;80;21479;-68
2021/05/04 04:43:51;;;;;;;9.35;7.55;;;;;;;13.05;46.50;100869.66;1778341;79;21388;-77
2021/05/04 04:46:20;;;;;;;4.75;1.80;;;;;;;13.51;45.39;100876.75;1778385;79;21002;-76
2021/05/04 04:48:48;;;;;;;4.67;1.40;;;;;;;14.03;44.54;100876.63;1778435;79;20990;-78
2021/05/04 04:51:17;;;;;;;2.15;1.40;;;;;;;14.56;43.46;100882.14;1778477;80;20938;-76
2021/05/04 04:53:45;;;;;;;2.87;1.50;;;;;;;15.02;41.16;100876.97;1773134;80;21438;-77
2021/05/04 04:56:14;;;;;;;1.42;1.17;;;;;;;15.40;39.69;100873.72;1769879;79;21363;-79
2021/05/04 04:58:42;;;;;;;1.65;1.55;;;;;;;15.68;39.27;100879.05;1769929;81;20939;-75
2021/05/04 05:01:11;;;;;;;2.12;1.30;;;;;;;16.06;39.50;100873.44;1769867;79;21010;-77
2021/05/04 05:03:39;;;;;;;3.33;1.57;;;;;;;16.52;39.15;100890.94;1769859;79;21053;-76
2021/05/04 05:06:07;;;;;;;3.52;1.85;;;;;;;16.89;37.25;100879.17;1769984;80;21432;-78
2021/05/04 05:08:36;;;;;;;3.72;1.42;;;;;;;17.18;36.96;100879.39;1770043;81;20970;-79
2021/05/04 05:11:04;;;;;;;6.03;1.72;;;;;;;17.46;36.83;100877.91;1770016;81;21337;-77
2021/05/04 05:13:34;;;;;;;2.45;1.60;;;;;;;17.79;36.78;100876.84;1769870;81;20942;-78
2021/05/04 05:16:02;;;;;;;6.05;1.92;;;;;;;18.26;36.68;100884.80;1769943;79;21444;-79
2021/05/04 05:18:31;;;;;;;3.02;1.40;;;;;;;18.52;34.88;100881.14;1769981;81;21445;-79
2021/05/04 05:20:59;;;;;;;5.55;1.80;;;;;;;18.66;34.24;100879.92;1769849;79;21103;-80
2021/05/04 05:23:27;;;;;;;6.97;2.37;;;;;;;18.84;34.83;100872.97;1769872;81;20931;-78
2021/05/04 05:25:57;;;;;;;3.22;1.82;;;;;;;19.01;33.44;100880.25;1769850;79;20935;-79
2021/05/04 05:28:25;;;;;;;2.35;1.50;;;;;;;19.12;33.72;100877.07;1769996;79;20942;-77
2021/05/04 05:30:54;;;;;;;1.75;1.57;;;;;;;19.24;33.82;100886.09;1770085;81;22109;-81
2021/05/04 05:33:22;;;;;;;5.47;1.52;;;;;;;19.46;33.45;100892.09;1769822;81;20966;-77
2021/05/04 05:35:51;;;;;;;1.77;1.65;;;;;;;19.66;32.83;100885.73;1769924;81;20963;-79
2021/05/04 05:38:20;;;;;;;2.52;1.30;;;;;;;19.83;32.83;100897.48;1768937;80;21041;-79
2021/05/04 05:40:49;;;;;;;5.55;1.42;;;;;;;20.02;31.95;100890.39;1770313;80;21456;-78
2021/05/04 05:43:17;;;;;;;1.40;1.02;;;;;;;20.14;32.46;100903.84;1770163;81;21815;-78
2021/05/04 05:45:45;;;;;;;1.67;1.37;;;;;;;20.41;32.43;100902.16;1770310;81;21063;-80
2021/05/04 05:48:13;;;;;;;4.78;2.05;;;;;;;20.59;31.47;100899.59;1770199;81;20935;-80
2021/05/04 05:50:42;;;;;;;1.40;1.30;;;;;;;20.65;31.27;100902.97;1770068;81;21030;-78
2021/05/04 05:53:10;;;;;;;4.12;1.57;;;;;;;20.81;30.11;100900.95;1770108;80;20939;-78
2021/05/04 05:55:38;;;;;;;3.02;1.40;;;;;;;20.85;29.85;100901.00;1770201;81;22337;-80
2021/05/04 05:58:07;;;;;;;1.47;0.85;;;;;;;20.97;29.81;100905.63;1770225;79;21369;-80
2021/05/04 06:00:35;;;;;;;5.15;1.10;;;;;;;21.08;30.32;100906.22;1770101;81;20965;-80
2021/05/04 06:03:04;;;;;;;1.35;1.25;;;;;;;21.32;29.70;100900.72;1769949;81;20935;-76
2021/05/04 06:05:32;;;;;;;1.27;1.00;;;;;;;21.50;28.43;100906.91;1770162;79;21018;-75
2021/05/04 06:08:00;;;;;;;2.98;1.30;;;;;;;21.62;28.39;100901.31;1770038;80;21355;-78
2021/05/04 06:10:28;;;;;;;1.52;0.70;;;;;;;21.75;28.12;100900.90;1770102;81;21014;-78
2021/05/04 06:13:01;;;;;;;2.87;1.25;;;;;;;21.91;28.31;100901.80;1770036;79;20927;-83
2021/05/04 06:15:31;;;;;;;1.62;1.00;;;;;;;22.09;28.08;100900.89;1770025;79;21026;-80
2021/05/04 06:18:00;;;;;;;4.08;2.95;;;;;;;22.18;27.74;100899.09;1770135;80;21006;-78
2021/05/04 06:20:28;;;;;;;3.77;1.85;;;;;;;22.31;27.70;100900.84;1770068;79;21427;-79
2021/05/04 06:22:56;;;;;;;7.90;1.37;;;;;;;22.42;27.67;100894.37;1769903;81;20971;-78
2021/05/04 06:25:24;;;;;;;0.88;0.75;;;;;;;22.49;27.69;100899.39;1769950;79;20942;-79
2021/05/04 06:27:53;;;;;;;1.05;0.95;;;;;;;22.67;27.73;100896.08;1770011;81;20943;-80
2021/05/04 06:30:22;;;;;;;1.02;0.68;;;;;;;22.78;26.53;100895.44;1770314;81;21429;-79
2021/05/04 06:32:51;;;;;;;1.25;1.15;;;;;;;22.71;26.01;100895.27;1770084;81;21411;-78
2021/05/04 06:35:20;;;;;;;4.37;1.10;;;;;;;22.70;27.33;100897.11;1770045;81;21034;-79
2021/05/04 06:37:48;;;;;;;2.67;1.15;;;;;;;22.79;26.40;100883.73;1770177;81;21452;-81
2021/05/04 06:40:17;;;;;;;1.25;0.78;;;;;;;22.89;26.25;100891.11;1770072;81;20950;-81
2021/05/04 06:42:46;;;;;;;2.10;0.85;;;;;;;23.00;25.73;100897.50;1770096;81;20933;-80
2021/05/04 06:45:14;;;;;;;2.92;0.70;;;;;;;23.13;24.92;100895.66;1769957;79;21359;-78
2021/05/04 06:47:42;;;;;;;0.93;0.70;;;;;;;23.22;24.23;100893.83;1770180;79;21054;-80
2021/05/04 06:50:11;;;;;;;2.10;0.70;;;;;;;23.09;23.92;100901.02;1770304;81;21010;-76
2021/05/04 06:52:39;;;;;;;1.12;0.70;;;;;;;22.91;24.36;100890.44;1770364;80;21066;-80
2021/05/04 06:55:09;;;;;;;6.25;1.02;;;;;;;22.88;24.45;100890.28;1778210;79;20922;-80
2021/05/04 06:57:37;;;;;;;0.93;0.70;;;;;;;22.86;24.58;100898.97;1778736;80;21136;-78
2021/05/04 07:00:07;;;;;;;0.82;0.53;;;;;;;22.85;23.53;100892.44;1778615;80;20923;-77
2021/05/04 07:02:35;;;;;;;2.67;0.40;;;;;;;22.92;24.94;100895.64;1778817;80;20958;-73
2021/05/04 07:05:05;;;;;;;1.40;0.75;;;;;;;23.19;24.16;100899.02;1778409;80;21349;-74
2021/05/04 07:07:33;;;;;;;2.77;0.80;;;;;;;23.30;23.73;100895.14;1778412;79;20996;-74
2021/05/04 07:10:03;;;;;;;1.55;0.50;;;;;;;23.34;23.75;100899.16;1778507;80;21798;-75
2021/05/04 07:12:31;;;;;;;1.15;0.70;;;;;;;23.38;24.51;100898.64;1778159;80;21038;-74
2021/05/04 07:15:00;;;;;;;1.10;0.50;;;;;;;23.63;25.29;100901.80;1778460;79;21029;-74
2021/05/04 07:17:27;;;;;;;0.68;0.40;;;;;;;23.77;23.31;100905.16;1778361;80;20938;-74
2021/05/04 07:19:56;;;;;;;2.02;0.70;;;;;;;23.82;23.24;100911.34;1778503;80;21483;-75
2021/05/04 07:22:27;;;;;;;0.75;0.60;;;;;;;23.74;22.42;100903.59;1778403;79;21473;-74
2021/05/04 07:24:55;;;;;;;0.78;0.72;;;;;;;23.77;23.40;100910.00;1778348;80;21387;-67
2021/05/04 07:27:24;;;;;;;2.02;0.72;;;;;;;23.84;22.82;100909.32;1778372;79;20899;-67
2021/05/04 07:29:52;;;;;;;3.37;0.50;;;;;;;23.73;23.16;100899.27;1778366;80;20963;-68
2021/05/04 07:32:21;;;;;;;3.85;0.98;;;;;;;23.91;23.48;100911.64;1778431;80;20978;-68
2021/05/04 07:34:51;;;;;;;2.15;1.17;;;;;;;23.99;24.12;100909.77;1778572;79;22282;-71
2021/05/04 07:37:19;;;;;;;3.33;2.35;;;;;;;24.08;23.96;100907.90;1778476;79;21460;-70
2021/05/04 07:39:47;;;;;;;2.20;0.98;;;;;;;24.21;24.47;100903.30;1778569;80;20955;-70
2021/05/04 07:42:15;;;;;;;4.12;0.62;;;;;;;24.38;23.72;100900.88;1778475;79;20942;-70
2021/05/04 07:44:45;;;;;;;2.65;1.05;;;;;;;24.40;23.66;100904.22;1778367;80;21472;-71
2021/05/04 07:47:13;;;;;;;2.62;0.80;;;;;;;24.34;23.20;100914.81;1778534;80;21455;-70
2021/05/04 07:49:45;;;;;;;2.15;0.95;;;;;;;24.32;23.68;100896.72;1778327;79;21033;-70
2021/05/04 07:52:14;;;;;;;4.07;0.93;;;;;;;24.36;23.68;100913.61;1778672;80;20922;-68
2021/05/04 07:54:43;;;;;;;2.55;0.70;;;;;;;24.51;24.22;100919.11;1778259;80;20994;-69
2021/05/04 07:57:12;;;;;;;0.80;0.40;;;;;;;24.76;23.92;100917.11;1778437;80;20939;-68
2021/05/04 07:59:40;;;;;;;3.90;0.80;;;;;;;24.97;23.43;100916.47;1778474;80;21194;-68
2021/05/04 08:02:09;;;;;;;2.77;0.82;;;;;;;25.11;22.49;100906.80;1778250;80;21044;-68
2021/05/04 08:04:38;;;;;;;2.85;0.80;;;;;;;25.15;22.91;100911.31;1778424;80;21510;-69
2021/05/04 08:07:08;;;;;;;4.78;0.80;;;;;;;25.26;22.22;100914.94;1778373;80;20931;-68
2021/05/04 08:09:36;;;;;;;2.27;0.80;;;;;;;25.29;21.00;100912.39;1778491;80;21543;-69
2021/05/04 08:12:06;;;;;;;0.72;0.62;;;;;;;25.11;21.64;100903.28;1778458;80;21195;-77
2021/05/04 08:14:35;;;;;;;0.50;0.30;;;;;;;25.06;21.50;100911.87;1778485;79;20958;-68
2021/05/04 08:17:11;;;;;;;2.98;1.72;;;;;;;24.97;21.87;100903.57;1778066;80;20918;-67
2021/05/04 08:19:35;;;;;;;2.98;1.45;;;;;;;25.05;23.16;100903.48;1777867;79;20938;-69
2021/05/04 08:22:03;;;;;;;4.53;0.90;;;;;;;25.15;21.94;100899.23;1778396;80;20986;-67
2021/05/04 08:24:32;;;;;;;4.90;1.10;;;;;;;25.22;22.21;100894.83;1778343;80;20978;-69
2021/05/04 08:27:00;;;;;;;3.12;0.95;;;;;;;25.44;21.99;100888.58;1752716;80;21025;-68
2021/05/04 08:29:30;;;;;;;1.10;0.70;;;;;;;25.66;21.45;100890.05;1778081;80;20997;-71
2021/05/04 08:32:01;;;;;;;5.55;0.70;;;;;;;25.85;21.90;100889.98;1777950;79;21030;-70
2021/05/04 08:34:32;;;;;;;2.52;0.90;;;;;;;25.99;21.90;100883.81;1778350;79;21474;-69
2021/05/04 08:37:02;;;;;;;0.98;0.30;;;;;;;26.09;20.96;100888.06;1778410;79;21374;-71
2021/05/04 08:39:31;;;;;;;3.27;0.60;;;;;;;26.20;21.50;100883.03;1778297;80;20978;-69
2021/05/04 08:41:59;;;;;;;0.75;0.40;;;;;;;26.19;19.62;100880.03;1778349;80;21475;-73
2021/05/04 08:44:29;;;;;;;1.27;0.68;;;;;;;26.00;19.37;100884.64;1777914;80;20903;-68
2021/05/04 08:46:57;;;;;;;1.00;0.45;;;;;;;25.83;19.94;100871.86;1778393;80;20911;-70
2021/05/04 08:49:26;;;;;;;3.77;0.53;;;;;;;25.64;19.98;100878.13;1778397;80;22350;-73
2021/05/04 08:51:54;;;;;;;0.95;0.50;;;;;;;25.54;21.71;100876.73;1778266;80;20962;-72
2021/05/04 08:54:22;;;;;;;4.10;1.57;;;;;;;25.58;19.70;100876.17;1775613;80;20994;-75
2021/05/04 08:56:50;;;;;;;1.85;1.47;;;;;;;25.53;20.60;100877.76;1769797;81;21034;-69
2021/05/04 08:59:18;;;;;;;3.40;1.10;;;;;;;25.62;20.95;100877.48;1769885;80;20919;-70
2021/05/04 09:01:46;;;;;;;3.52;0.62;;;;;;;25.82;21.46;100876.92;1769818;80;21189;-71
2021/05/04 09:04:42;;;;;;;1.27;0.80;;;;;;;25.91;20.11;100884.42;1769834;79;20975;-70
2021/05/04 09:07:19;;;;;;;0.93;0.82;;;;;;;25.74;19.96;100877.02;1769437;79;20943;-74
2021/05/04 09:16:21;;;;;;;2.83;1.60;;;;;;;25.75;20.48;100867.95;1868069;74;27706;-70
2021/05/04 09:21:30;;;;;;;5.87;1.27;;;;;;;26.09;21.24;100869.24;1852998;77;21361;-72
2021/05/04 09:23:59;;;;;;;23.75;2.67;;;;;;;26.22;20.69;100872.92;1852738;77;20919;-73
2021/05/04 09:26:32;;;;;;;1.82;1.12;;;;;;;26.26;19.91;100880.94;1822327;77;20915;-69
2021/05/04 09:29:08;;;;;;;3.55;2.00;;;;;;;26.10;19.95;100878.96;1852821;77;21021;-71
2021/05/04 09:31:38;;;;;;;2.17;1.52;;;;;;;26.08;21.05;100868.91;1852982;77;20887;-68
2021/05/04 09:34:14;;;;;;;3.60;1.27;;;;;;;25.99;20.13;100876.23;1852817;77;21444;-69
2021/05/04 09:36:48;;;;;;;5.20;0.60;;;;;;;25.94;19.42;100876.80;1852851;76;21126;-70
2021/05/04 09:39:34;;;;;;;1.15;0.80;;;;;;;25.83;19.69;100874.55;1852532;76;21428;-70
2021/05/04 09:42:05;;;;;;;3.10;1.65;;;;;;;25.73;19.99;100879.39;1852811;77;20934;-70
2021/05/04 09:44:42;;;;;;;1.82;1.17;;;;;;;25.58;19.39;100872.66;1795812;77;20982;-70
2021/05/04 09:47:14;;;;;;;7.25;1.37;;;;;;;25.55;20.50;100877.07;1852694;77;21324;-69
2021/05/04 09:49:43;;;;;;;2.10;1.57;;;;;;;25.62;19.31;100866.73;1852890;77;21479;-70
2021/05/04 09:52:46;;;;;;;1.72;1.22;;;;;;;25.44;20.11;100871.63;1852770;77;20906;-70
2021/05/04 09:55:15;;;;;;;8.80;0.80;;;;;;;25.43;20.86;100873.98;1852718;76;21021;-70
2021/05/04 09:57:50;;;;;;;4.75;0.75;;;;;;;25.52;19.61;100876.08;1852899;77;20926;-68
2021/05/04 10:00:26;;;;;;;2.77;0.90;;;;;;;25.28;19.45;100880.69;1852809;77;21463;-71
2021/05/04 10:02:54;;;;;;;2.62;0.72;;;;;;;24.78;20.31;100878.04;1852720;77;21534;-71
2021/05/04 10:05:22;;;;;;;1.10;0.90;;;;;;;24.40;21.40;100881.94;1852877;76;20958;-71
2021/05/04 10:07:50;;;;;;;1.72;0.82;;;;;;;24.26;21.20;100871.47;1852809;77;20915;-70
2021/05/04 10:10:19;;;;;;;2.15;0.50;;;;;;;24.33;21.36;100858.20;1852820;77;20930;-72
2021/05/04 10:12:47;;;;;;;3.27;1.07;;;;;;;24.58;21.67;100873.66;1852788;77;21177;-70
2021/05/04 10:15:15;;;;;;;4.05;0.90;;;;;;;24.86;21.55;100871.80;1852589;76;20903;-71
2021/05/04 10:17:43;;;;;;;2.30;0.53;;;;;;;25.21;22.13;100876.55;1852787;76;20939;-73
2021/05/04 10:20:16;;;;;;;4.12;1.00;;;;;;;25.36;20.44;100874.39;1852734;76;21009;-70
2021/05/04 10:22:46;;;;;;;;;;;;;;;25.38;21.47;100876.39;1855393;77;20997;-70
2021/05/04 10:25:17;;;;;;;6.53;1.30;;;;;;;25.57;21.44;100869.15;1852812;77;22341;-73
2021/05/04 10:27:46;;;;;;;2.58;1.47;;;;;;;25.58;21.02;100861.40;1852145;77;20966;-71
2021/05/04 10:30:19;;;;;;;21.87;2.50;;;;;;;25.34;21.16;100864.34;1822103;77;21456;-73
2021/05/04 10:33:02;;;;;;;4.17;1.20;;;;;;;25.20;21.09;100874.88;1852441;77;20907;-72
2021/05/04 10:35:34;;;;;;;3.98;1.82;;;;;;;25.06;21.29;100874.31;1852136;77;20989;-70
2021/05/04 10:38:13;;;;;;;2.98;1.22;;;;;;;24.82;21.34;100864.09;1852205;77;22269;-69
2021/05/04 10:40:49;;;;;;;3.47;2.02;;;;;;;24.73;21.33;100857.64;1852075;77;21661;-69
2021/05/04 10:43:27;;;;;;;2.67;1.47;;;;;;;24.84;22.04;100859.06;1850954;77;20942;-69
2021/05/04 10:45:56;;;;;;;5.15;1.37;;;;;;;25.03;21.51;100860.75;1852115;76;21008;-68
2021/05/04 10:48:41;;;;;;;2.33;1.82;;;;;;;25.15;20.90;100854.95;1851984;77;20990;-69
2021/05/04 10:51:16;;;;;;;3.52;1.45;;;;;;;24.97;21.64;100853.41;1852248;77;22175;-70
2021/05/04 10:54:01;;;;;;;13.68;2.10;;;;;;;24.83;21.80;100852.84;1852093;77;20970;-69
2021/05/04 10:56:57;;;;;;;5.78;1.10;;;;;;;24.56;22.01;100855.05;1852272;77;21138;-69
2021/05/04 10:59:37;;;;;;;3.50;1.32;;;;;;;24.44;21.80;100855.62;1852093;76;20978;-69
2021/05/04 11:02:16;;;;;;;3.70;1.42;;;;;;;24.11;21.50;100857.97;1842122;77;20962;-69
2021/05/04 11:04:52;;;;;;;1.87;0.95;;;;;;;23.88;22.89;100860.59;1852180;76;21354;-70
2021/05/04 11:07:58;;;;;;;2.10;0.82;;;;;;;23.63;22.35;100853.59;1852128;76;20934;-68
2021/05/04 11:10:28;;;;;;;1.90;1.00;;;;;;;23.15;23.19;100847.67;1852232;77;20895;-68
2021/05/04 11:12:57;;;;;;;2.98;0.93;;;;;;;22.72;24.03;100843.45;1852069;76;20875;-70
2021/05/04 11:15:28;;;;;;;2.05;0.78;;;;;;;22.30;23.70;100855.09;1852265;77;21071;-67
2021/05/04 11:17:58;;;;;;;3.08;0.50;;;;;;;21.65;24.41;100848.44;1852748;77;21419;-69
2021/05/04 11:20:41;;;;;;;3.27;0.93;;;;;;;21.06;25.21;100850.03;1852582;76;20930;-70
2021/05/04 11:23:09;;;;;;;1.10;0.50;;;;;;;20.56;25.00;100842.55;1852659;76;20919;-67
2021/05/04 11:25:40;;;;;;;0.90;0.70;;;;;;;20.09;25.93;100848.38;1852640;77;20910;-70
2021/05/04 11:28:09;;;;;;;2.72;0.70;;;;;;;19.89;26.95;100841.48;1852787;77;20919;-70
2021/05/04 11:30:40;;;;;;;1.02;0.70;;;;;;;19.97;28.20;100844.75;1852743;76;21422;-70
2021/05/04 11:33:29;;;;;;;1.42;0.60;;;;;;;20.04;27.49;100837.84;1852744;77;21361;-66
2021/05/04 11:35:58;;;;;;;1.02;0.50;;;;;;;20.06;27.47;100842.53;1852729;77;20922;-68
2021/05/04 11:38:27;;;;;;;1.62;0.65;;;;;;;20.06;26.96;100840.70;1852621;77;21021;-69
2021/05/04 11:40:55;;;;;;;2.00;0.80;;;;;;;20.08;27.22;100835.23;1852756;77;20990;-68
2021/05/04 11:43:24;;;;;;;2.17;0.88;;;;;;;20.09;26.79;100840.89;1852840;77;21815;-69
2021/05/04 11:45:51;;;;;;;1.35;1.25;;;;;;;19.93;26.50;100833.55;1852654;77;21002;-67
2021/05/04 11:48:19;;;;;;;1.17;0.90;;;;;;;19.76;26.74;100840.97;1852679;76;20907;-69
2021/05/04 11:50:51;;;;;;;1.10;1.00;;;;;;;19.58;26.75;100838.20;1826845;77;20911;-68
2021/05/04 11:53:19;;;;;;;1.20;1.10;;;;;;;19.41;27.37;100830.52;1852719;77;20898;-69